createdAt,value
2023-04-11T00:01:07.652Z,15.57
2023-04-11T00:03:38.055Z,15.83
2023-04-11T00:06:07.645Z,14.80
2023-04-11T00:08:36.360Z,15.83
2023-04-11T00:11:05.239Z,16.77
2023-04-11T00:13:34.620Z,14.63
2023-04-11T00:16:03.688Z,14.33
2023-04-11T00:18:34.218Z,16.43
2023-04-11T00:21:04.483Z,13.40
2023-04-11T00:23:33.247Z,14.40
2023-04-11T00:26:01.977Z,18.17
2023-04-11T00:28:30.769Z,14.77
2023-04-11T00:30:59.694Z,15.70
2023-04-11T00:33:28.428Z,15.53
2023-04-11T00:35:57.109Z,17.37
2023-04-11T00:38:25.880Z,16.30
2023-04-11T00:40:54.483Z,17.63
2023-04-11T00:43:23.193Z,16.93
2023-04-11T00:45:52.677Z,17.27
2023-04-11T00:48:21.785Z,15.23
2023-04-11T00:50:50.587Z,17.50
2023-04-11T00:53:19.620Z,19.57
2023-04-11T00:55:48.611Z,16.90
2023-04-11T00:58:17.601Z,17.40
2023-04-11T01:00:48.924Z,16.33
2023-04-11T01:03:19.216Z,18.47
2023-04-11T01:05:49.448Z,16.90
2023-04-11T01:08:20.284Z,16.40
2023-04-11T01:10:49.912Z,17.77
2023-04-11T01:13:19.314Z,16.57
2023-04-11T01:15:48.124Z,20.53
2023-04-11T01:18:16.871Z,17.13
2023-04-11T01:20:45.589Z,19.40
2023-04-11T01:23:15.815Z,17.23
2023-04-11T01:25:44.599Z,16.23
2023-04-11T01:28:13.604Z,16.63
2023-04-11T01:30:42.389Z,19.70
2023-04-11T01:33:11.833Z,17.20
2023-04-11T01:35:40.593Z,17.83
2023-04-11T01:38:09.638Z,16.70
2023-04-11T01:40:39.246Z,18.47
2023-04-11T01:43:09.442Z,19.03
2023-04-11T01:45:38.717Z,19.17
2023-04-11T01:48:08.883Z,16.87
2023-04-11T01:50:37.688Z,17.83
2023-04-11T01:53:06.558Z,19.10
2023-04-11T01:55:35.371Z,17.33
2023-04-11T01:58:04.206Z,18.37
2023-04-11T02:00:33.132Z,19.20
2023-04-11T02:03:01.830Z,19.57
2023-04-11T02:05:30.783Z,17.67
2023-04-11T02:07:59.598Z,18.17
2023-04-11T02:10:28.379Z,18.93
2023-04-11T02:12:57.120Z,17.73
2023-04-11T02:15:25.873Z,18.07
2023-04-11T02:17:54.722Z,22.47
2023-04-11T02:20:24.176Z,19.40
2023-04-11T02:22:52.829Z,22.10
2023-04-11T02:25:21.492Z,23.47
2023-04-11T02:27:50.256Z,19.30
2023-04-11T02:30:19.000Z,25.00
2023-04-11T02:32:49.329Z,23.33
2023-04-11T02:35:18.664Z,20.63
2023-04-11T02:37:47.492Z,19.10
2023-04-11T02:40:16.364Z,20.83
2023-04-11T02:42:45.122Z,20.03
2023-04-11T02:45:13.740Z,24.07
2023-04-11T02:47:42.417Z,20.07
2023-04-11T02:50:11.859Z,22.60
2023-04-11T02:52:42.330Z,26.07
2023-04-11T02:55:11.224Z,22.57
2023-04-11T02:57:39.842Z,22.93
2023-04-11T03:00:09.756Z,21.60
2023-04-11T03:02:40.198Z,22.23
2023-04-11T03:05:10.330Z,24.03
2023-04-11T03:07:40.697Z,24.23
2023-04-11T03:10:10.018Z,26.70
2023-04-11T03:12:38.747Z,23.23
2023-04-11T03:15:07.945Z,25.83
2023-04-11T03:17:38.129Z,22.47
2023-04-11T03:20:08.326Z,25.17
2023-04-11T03:22:37.062Z,22.93
2023-04-11T03:25:08.262Z,27.37
2023-04-11T03:27:37.065Z,23.87
2023-04-11T03:30:05.997Z,23.37
2023-04-11T03:32:37.635Z,25.30
2023-04-11T03:35:06.576Z,24.87
2023-04-11T03:37:35.344Z,28.10
2023-04-11T03:40:04.414Z,26.70
2023-04-11T03:42:33.023Z,25.80
2023-04-11T03:45:02.949Z,28.53
2023-04-11T03:47:31.939Z,29.07
2023-04-11T03:50:01.390Z,28.17
2023-04-11T03:52:30.167Z,27.83
2023-04-11T03:54:58.786Z,28.20
2023-04-11T03:57:28.230Z,28.30
2023-04-11T04:00:00.155Z,29.87
2023-04-11T04:02:28.994Z,30.17
2023-04-11T04:05:01.524Z,29.47
2023-04-11T04:07:30.234Z,26.70
2023-04-11T04:09:59.038Z,34.07
2023-04-11T04:12:27.661Z,26.97
2023-04-11T04:14:56.227Z,28.97
2023-04-11T04:17:25.470Z,29.70
2023-04-11T04:19:54.056Z,27.50
2023-04-11T04:22:23.834Z,33.27
2023-04-11T04:24:52.498Z,33.13
2023-04-11T04:27:24.228Z,26.80
2023-04-11T04:30:02.329Z,32.40
2023-04-11T04:32:28.272Z,29.60
2023-04-11T04:35:01.348Z,30.03
2023-04-11T04:37:30.127Z,28.37
2023-04-11T04:40:11.705Z,32.20
2023-04-11T04:42:43.197Z,25.47
2023-04-11T04:45:13.697Z,30.63
2023-04-11T04:47:42.648Z,31.27
2023-04-11T04:50:11.782Z,32.10
2023-04-11T04:52:41.131Z,32.27
2023-04-11T04:55:10.580Z,31.83
2023-04-11T04:57:45.366Z,35.43
2023-04-11T05:00:15.357Z,31.53
2023-04-11T05:02:44.149Z,32.67
2023-04-11T05:05:13.975Z,33.97
2023-04-11T05:07:42.684Z,33.60
2023-04-11T05:10:11.508Z,29.80
2023-04-11T05:12:40.828Z,33.90
2023-04-11T05:15:11.844Z,30.63
2023-04-11T05:17:40.678Z,26.93
2023-04-11T05:20:11.414Z,35.97
2023-04-11T05:22:41.714Z,31.07
2023-04-11T05:25:12.136Z,33.50
2023-04-11T05:27:45.302Z,27.53
2023-04-11T05:30:14.676Z,39.27
2023-04-11T05:32:43.435Z,41.13
2023-04-11T05:35:13.260Z,33.70
2023-04-11T05:37:45.495Z,30.30
2023-04-11T05:40:16.315Z,31.73
2023-04-11T05:42:45.088Z,32.63
2023-04-11T05:45:13.916Z,35.77
2023-04-11T05:47:42.657Z,29.50
2023-04-11T05:50:12.412Z,29.77
2023-04-11T05:52:42.608Z,29.87
2023-04-11T05:55:11.818Z,29.77
2023-04-11T05:57:40.779Z,31.30
2023-04-11T06:00:14.485Z,27.47
2023-04-11T06:02:47.903Z,31.87
2023-04-11T06:05:18.093Z,26.47
2023-04-11T06:07:46.920Z,26.60
2023-04-11T06:10:15.830Z,23.40
2023-04-11T06:12:46.061Z,32.20
2023-04-11T06:15:14.794Z,24.93
2023-04-11T06:17:45.621Z,25.40
2023-04-11T06:20:14.358Z,24.23
2023-04-11T06:22:43.213Z,26.73
2023-04-11T06:25:12.283Z,22.73
2023-04-11T06:27:46.561Z,24.77
2023-04-11T06:30:18.278Z,25.27
2023-04-11T06:32:48.571Z,23.20
2023-04-11T06:35:17.450Z,22.93
2023-04-11T06:37:46.895Z,18.87
2023-04-11T06:40:17.363Z,24.70
2023-04-11T06:42:46.879Z,18.70
2023-04-11T06:45:17.464Z,18.87
2023-04-11T06:47:46.158Z,17.80
2023-04-11T06:50:14.991Z,20.30
2023-04-11T06:52:47.037Z,14.80
2023-04-11T06:55:17.286Z,18.27
2023-04-11T06:57:53.812Z,18.60
2023-04-11T07:00:22.970Z,20.27
2023-04-11T07:02:53.593Z,21.63
2023-04-11T07:05:24.302Z,20.57
2023-04-11T07:07:54.816Z,19.43
2023-04-11T07:10:25.364Z,19.97
2023-04-11T07:13:07.222Z,19.40
2023-04-11T07:15:37.552Z,19.37
2023-04-11T07:18:08.863Z,21.33
2023-04-11T07:20:44.884Z,17.50
2023-04-11T07:23:13.613Z,24.27
2023-04-11T07:25:42.509Z,18.43
2023-04-11T07:28:11.601Z,18.87
2023-04-11T07:30:40.338Z,20.93
2023-04-11T07:33:09.468Z,15.30
2023-04-11T07:35:38.254Z,16.67
2023-04-11T07:38:08.765Z,20.90
2023-04-11T07:40:37.496Z,19.17
2023-04-11T07:43:06.235Z,17.93
2023-04-11T07:45:36.459Z,15.13
2023-04-11T07:48:05.290Z,18.40
2023-04-11T07:50:33.883Z,16.37
2023-04-11T07:53:03.361Z,16.83
2023-04-11T07:55:32.020Z,14.47
2023-04-11T07:58:00.804Z,16.33
2023-04-11T08:00:34.190Z,13.63
2023-04-11T08:03:08.745Z,14.80
2023-04-11T08:05:38.767Z,15.60
2023-04-11T08:08:07.847Z,13.97
2023-04-11T08:10:36.674Z,13.63
2023-04-11T08:13:05.513Z,14.13
2023-04-11T08:15:35.786Z,15.27
2023-04-11T08:18:05.344Z,13.07
2023-04-11T08:20:34.100Z,13.40
2023-04-11T08:23:05.931Z,12.63
2023-04-11T08:25:36.452Z,19.37
2023-04-11T08:28:06.149Z,13.43
2023-04-11T08:30:37.789Z,15.43
2023-04-11T08:33:07.203Z,12.90
2023-04-11T08:35:36.944Z,13.37
2023-04-11T08:38:06.096Z,12.40
2023-04-11T08:40:35.919Z,13.90
2023-04-11T08:43:07.089Z,13.57
2023-04-11T08:45:35.935Z,13.23
2023-04-11T08:48:04.712Z,11.70
2023-04-11T08:50:36.404Z,16.47
2023-04-11T08:53:05.571Z,16.67
2023-04-11T08:55:34.200Z,13.77
2023-04-11T08:58:03.854Z,12.43
2023-04-11T09:00:32.798Z,12.20
2023-04-11T09:03:07.018Z,11.18
2023-04-11T09:05:39.620Z,16.75
2023-04-11T09:08:10.449Z,11.70
2023-04-11T09:10:40.780Z,13.78
2023-04-11T09:13:26.688Z,12.13
2023-04-11T09:16:13.162Z,14.23
2023-04-11T09:18:44.020Z,13.70
2023-04-11T09:21:15.231Z,10.90
2023-04-11T09:23:44.702Z,9.97
2023-04-11T09:26:17.361Z,11.43
2023-04-11T09:28:54.283Z,11.28
2023-04-11T09:31:25.288Z,11.48
2023-04-11T09:33:59.873Z,12.40
2023-04-11T09:36:29.002Z,11.08
2023-04-11T09:38:58.413Z,12.67
2023-04-11T09:41:34.562Z,12.18
2023-04-11T09:44:03.857Z,15.13
2023-04-11T09:46:33.845Z,15.37
2023-04-11T09:49:02.947Z,14.35
2023-04-11T09:51:36.875Z,13.83
2023-04-11T09:54:04.325Z,15.08
2023-04-11T09:56:35.637Z,13.55
2023-04-11T09:59:05.710Z,15.37
2023-04-11T10:01:34.592Z,11.78
2023-04-11T10:04:04.575Z,13.00
2023-04-11T10:06:45.633Z,11.93
2023-04-11T10:09:16.747Z,12.23
2023-04-11T10:11:46.673Z,11.90
2023-04-11T10:14:39.828Z,14.60
2023-04-11T10:17:21.972Z,14.35
2023-04-11T10:19:49.543Z,12.05
2023-04-11T10:22:44.034Z,11.20
2023-04-11T10:25:24.632Z,14.18
2023-04-11T10:28:09.744Z,13.43
2023-04-11T10:31:04.690Z,16.17
2023-04-11T10:33:39.145Z,15.23
2023-04-11T10:36:13.427Z,13.60
2023-04-11T10:38:47.032Z,12.15
2023-04-11T10:41:29.516Z,13.03
2023-04-11T10:44:21.541Z,12.43
2023-04-11T10:46:55.861Z,12.45
2023-04-11T10:49:35.615Z,14.78
2023-04-11T10:52:21.765Z,15.08
2023-04-11T10:54:52.539Z,15.18
2023-04-11T10:57:25.499Z,12.53
2023-04-11T10:59:58.845Z,11.68
2023-04-11T11:02:30.015Z,12.95
2023-04-11T11:04:59.342Z,9.75
2023-04-11T11:07:43.152Z,9.43
2023-04-11T11:10:12.201Z,11.45
2023-04-11T11:12:59.064Z,11.57
2023-04-11T11:15:31.864Z,12.18
2023-04-11T11:18:02.576Z,10.70
2023-04-11T11:20:31.596Z,15.32
2023-04-11T11:23:08.133Z,12.60
2023-04-11T11:25:37.579Z,11.70
2023-04-11T11:28:08.789Z,11.20
2023-04-11T11:30:38.399Z,12.70
2023-04-11T11:33:20.902Z,10.55
2023-04-11T11:36:01.889Z,13.83
2023-04-11T11:38:39.616Z,12.63
2023-04-11T11:41:11.446Z,11.15
2023-04-11T11:43:40.645Z,13.28
2023-04-11T11:46:14.808Z,11.28
2023-04-11T11:49:03.944Z,10.05
2023-04-11T11:51:44.166Z,11.33
2023-04-11T11:54:13.426Z,10.63
2023-04-11T11:56:53.098Z,11.65
2023-04-11T11:59:31.085Z,10.60
2023-04-11T12:01:59.987Z,13.30
2023-04-11T12:04:30.979Z,11.60
2023-04-11T12:07:12.995Z,13.65
2023-04-11T12:09:41.813Z,11.63
2023-04-11T12:12:10.903Z,11.63
2023-04-11T12:14:39.857Z,11.08
2023-04-11T12:17:12.159Z,13.75
2023-04-11T12:19:47.743Z,10.10
2023-04-11T12:22:37.166Z,12.13
2023-04-11T12:25:18.112Z,10.68
2023-04-11T12:27:52.293Z,11.35
2023-04-11T12:34:45.909Z,13.75
2023-04-11T13:08:08.451Z,8.43
2023-04-11T13:13:46.848Z,8.73
2023-04-11T13:16:24.002Z,14.13
2023-04-11T13:19:23.411Z,12.33
2023-04-11T13:22:03.714Z,10.15
2023-04-11T13:24:48.542Z,10.70
2023-04-11T13:30:38.166Z,11.68
2023-04-11T13:33:17.596Z,14.13
2023-04-11T13:41:46.265Z,12.60
2023-04-11T13:44:27.455Z,12.15
2023-04-11T13:46:56.467Z,10.95
2023-04-11T13:49:27.480Z,11.05
2023-04-11T13:51:56.376Z,13.20
2023-04-11T13:54:28.461Z,11.22
2023-04-11T13:56:59.454Z,11.68
2023-04-11T13:59:31.279Z,14.28
2023-04-11T14:02:00.196Z,12.37
2023-04-11T14:04:43.691Z,13.28
2023-04-11T14:07:12.805Z,10.00
2023-04-11T14:09:47.930Z,11.70
2023-04-11T14:12:22.938Z,14.53
2023-04-11T14:14:51.815Z,15.20
2023-04-11T14:17:25.170Z,10.98
2023-04-11T14:19:51.409Z,10.55
2023-04-11T14:22:23.342Z,10.68
2023-04-11T14:24:52.539Z,12.70
2023-04-11T14:27:29.437Z,12.58
2023-04-11T14:32:55.948Z,14.50
2023-04-11T14:38:52.361Z,14.28
2023-04-11T14:41:21.176Z,14.80
2023-04-11T14:43:50.008Z,12.20
2023-04-11T14:46:24.304Z,11.48
2023-04-11T14:48:53.002Z,16.42
2023-04-11T14:51:23.544Z,10.88
2023-04-11T14:53:53.804Z,17.07
2023-04-11T14:56:26.761Z,18.42
2023-04-11T14:59:21.289Z,13.40
2023-04-11T15:01:54.560Z,12.60
2023-04-11T15:04:31.952Z,11.63
2023-04-11T15:07:04.158Z,17.05
2023-04-11T15:12:32.200Z,12.65
2023-04-11T15:15:01.438Z,13.50
2023-04-11T15:17:31.849Z,13.08
2023-04-11T15:20:00.860Z,17.10
2023-04-11T15:22:29.694Z,16.65
2023-04-11T15:25:00.160Z,17.12
2023-04-11T15:27:29.151Z,16.40
2023-04-11T15:29:59.877Z,13.43
2023-04-11T15:32:28.829Z,17.32
2023-04-11T15:34:57.583Z,21.00
2023-04-11T15:37:26.687Z,16.35
2023-04-11T15:39:58.076Z,14.93
2023-04-11T15:42:26.895Z,15.25
2023-04-11T15:44:56.143Z,16.02
2023-04-11T15:47:24.849Z,13.55
2023-04-11T15:49:53.651Z,16.30
2023-04-11T15:52:22.484Z,12.58
2023-04-11T15:54:51.076Z,17.05
2023-04-11T15:57:19.689Z,17.82
2023-04-11T15:59:49.107Z,13.58
2023-04-11T16:02:17.899Z,14.47
2023-04-11T16:04:48.140Z,13.78
2023-04-11T16:07:23.134Z,16.45
2023-04-11T16:09:52.177Z,19.40
2023-04-11T16:12:21.223Z,16.85
2023-04-11T16:14:50.142Z,16.25
2023-04-11T16:17:21.685Z,20.23
2023-04-11T16:19:52.903Z,18.65
2023-04-11T16:22:25.333Z,17.77
2023-04-11T16:24:56.001Z,17.80
2023-04-11T16:27:29.188Z,19.10
2023-04-11T16:30:04.139Z,14.60
2023-04-11T16:32:37.358Z,17.73
2023-04-11T16:35:08.595Z,15.98
2023-04-11T16:37:46.984Z,15.98
2023-04-11T16:40:22.667Z,15.70
2023-04-11T17:27:38.614Z,24.63
2023-04-11T17:30:13.532Z,16.48
2023-04-11T17:33:00.007Z,17.52
2023-04-11T17:45:51.107Z,17.73
2023-04-11T17:48:23.534Z,19.65
2023-04-11T17:50:59.413Z,21.60
2023-04-11T17:53:48.300Z,21.40
2023-04-11T17:59:34.362Z,19.65
2023-04-11T18:35:56.059Z,14.15
2023-04-11T18:41:23.637Z,17.37
2023-04-11T18:44:00.854Z,20.57
2023-04-11T18:52:38.768Z,25.93
2023-04-11T18:58:25.631Z,12.37
2023-04-11T19:03:56.258Z,13.47
2023-04-11T19:06:33.233Z,13.70
2023-04-11T19:11:57.350Z,11.70
2023-04-11T19:28:20.140Z,14.13
2023-04-11T19:39:31.845Z,14.50
2023-04-11T19:42:09.110Z,12.57
2023-04-11T19:44:58.463Z,18.33
2023-04-11T19:47:29.477Z,15.90
2023-04-11T19:50:00.683Z,12.87
2023-04-11T19:52:33.359Z,14.27
2023-04-11T20:01:46.656Z,13.30
2023-04-11T20:04:17.993Z,14.80
2023-04-11T20:07:00.974Z,13.07
2023-04-11T20:09:30.252Z,16.53
2023-04-11T20:12:05.637Z,16.30
2023-04-11T20:14:41.995Z,18.33
2023-04-11T20:17:18.128Z,17.87
2023-04-11T20:19:48.048Z,13.20
2023-04-11T20:22:19.383Z,19.23
2023-04-11T20:24:50.194Z,14.13
2023-04-11T20:27:23.099Z,12.90
2023-04-11T20:29:57.678Z,13.63
2023-04-11T20:38:39.953Z,13.37
2023-04-11T20:41:14.781Z,12.90
2023-04-11T20:43:50.464Z,15.87
2023-04-11T20:53:05.406Z,14.20
2023-04-11T20:55:36.248Z,12.07
2023-04-11T20:58:15.269Z,14.10
2023-04-11T21:00:46.412Z,12.47
2023-04-11T21:03:26.536Z,10.77
2023-04-11T21:06:06.239Z,12.47
2023-04-11T21:08:38.112Z,10.33
2023-04-11T21:11:09.649Z,10.00
2023-04-11T21:18:37.982Z,11.80
2023-04-11T21:32:08.078Z,11.80
2023-04-11T21:40:35.083Z,13.03
2023-04-11T21:43:07.308Z,10.33
2023-04-11T21:45:38.066Z,12.97
2023-04-11T21:48:17.469Z,11.77
2023-04-11T21:50:46.599Z,13.77
2023-04-11T21:53:15.762Z,13.20
2023-04-11T21:55:52.268Z,12.63
2023-04-11T21:58:29.058Z,12.73
2023-04-11T22:00:56.984Z,14.00
2023-04-11T22:03:46.872Z,13.77
2023-04-11T22:06:16.215Z,12.90
2023-04-11T22:08:49.914Z,12.33
2023-04-11T22:11:20.620Z,12.30
2023-04-11T22:13:49.955Z,13.10
2023-04-11T22:16:19.443Z,14.73
2023-04-11T22:18:49.156Z,12.13
2023-04-11T22:21:21.479Z,17.17
2023-04-11T22:23:59.764Z,14.10
2023-04-11T22:26:32.237Z,12.97
2023-04-11T22:32:05.329Z,14.73
2023-04-11T22:34:34.312Z,14.20
2023-04-11T22:37:03.772Z,12.60
2023-04-11T22:39:37.859Z,12.93
2023-04-11T22:42:07.218Z,12.60
2023-04-11T22:48:08.595Z,13.80
2023-04-11T22:50:50.186Z,15.13
2023-04-11T22:53:20.840Z,15.03
2023-04-11T22:55:51.893Z,12.37
2023-04-11T22:58:21.045Z,13.27
2023-04-11T23:07:13.610Z,13.10
2023-04-11T23:09:48.168Z,12.70
2023-04-11T23:12:24.330Z,14.43
2023-04-11T23:14:53.487Z,15.87
2023-04-11T23:17:24.209Z,14.03
2023-04-11T23:19:53.469Z,15.17
2023-04-11T23:22:24.099Z,16.23
2023-04-11T23:24:59.455Z,15.60
2023-04-11T23:27:28.721Z,15.03
2023-04-11T23:29:59.234Z,18.73
2023-04-11T23:32:28.367Z,15.03
2023-04-11T23:34:58.865Z,12.50
2023-04-11T23:37:34.727Z,14.67
2023-04-11T23:40:05.230Z,15.07
2023-04-11T23:42:34.866Z,13.43
2023-04-11T23:45:03.799Z,15.97
2023-04-11T23:47:32.569Z,18.17
2023-04-11T23:50:33.551Z,15.37
2023-04-11T23:52:41.520Z,15.60
2023-04-11T23:55:11.045Z,15.83
2023-04-11T23:57:40.050Z,16.43
